createdAt,value
2023-02-28T00:01:15.939Z,102650.81
2023-02-28T00:06:19.757Z,102653.63
2023-02-28T00:11:22.896Z,102658.13
2023-02-28T00:16:25.140Z,102659.94
2023-02-28T00:21:28.597Z,102663.94
2023-02-28T00:26:30.939Z,102658.63
2023-02-28T00:31:32.875Z,102656.09
2023-02-28T00:36:36.336Z,102652.09
2023-02-28T00:41:38.688Z,102659.22
2023-02-28T00:46:40.826Z,102667.53
2023-02-28T00:51:44.698Z,102660.72
2023-02-28T00:56:46.732Z,102669.56
2023-02-28T01:01:49.397Z,102670.25
2023-02-28T01:06:53.406Z,102656.81
2023-02-28T01:11:56.087Z,102659.06
2023-02-28T01:16:58.111Z,102657.22
2023-02-28T01:22:03.579Z,102653.84
2023-02-28T01:27:05.837Z,102662.66
2023-02-28T01:32:07.670Z,102657.22
2023-02-28T01:37:11.242Z,102653.31
2023-02-28T01:42:13.674Z,102642.41
2023-02-28T01:47:16.401Z,102641.38
2023-02-28T01:52:21.571Z,102643.09
2023-02-28T01:57:29.624Z,102638.50
2023-02-28T02:02:32.040Z,102644.09
2023-02-28T02:07:37.598Z,102637.19
2023-02-28T02:13:02.156Z,102633.78
2023-02-28T02:18:10.798Z,102644.63
2023-02-28T02:23:34.119Z,102644.63
2023-02-28T02:28:57.074Z,102645.72
2023-02-28T02:34:28.249Z,102638.91
2023-02-28T02:39:36.506Z,102648.50
2023-02-28T02:44:43.162Z,102640.69
2023-02-28T02:49:50.681Z,102642.72
2023-02-28T02:54:56.648Z,102644.41
2023-02-28T03:00:00.126Z,102650.09
2023-02-28T03:05:07.911Z,102644.84
2023-02-28T03:10:33.179Z,102638.56
2023-02-28T03:15:46.225Z,102629.97
2023-02-28T03:21:00.784Z,102643.31
2023-02-28T03:26:07.089Z,102640.91
2023-02-28T03:31:16.286Z,102650.69
2023-02-28T03:36:22.964Z,102662.69
2023-02-28T03:41:30.995Z,102665.72
2023-02-28T03:46:37.210Z,102661.78
2023-02-28T03:51:44.230Z,102664.94
2023-02-28T03:56:52.618Z,102668.22
2023-02-28T04:01:54.903Z,102657.44
2023-02-28T04:07:07.454Z,102671.91
2023-02-28T04:12:10.097Z,102663.09
2023-02-28T04:17:12.541Z,102652.88
2023-02-28T04:22:15.817Z,102661.25
2023-02-28T04:27:17.818Z,102661.69
2023-02-28T04:32:19.970Z,102671.91
2023-02-28T04:37:23.565Z,102675.69
2023-02-28T04:42:25.897Z,102685.84
2023-02-28T04:47:27.972Z,102682.56
2023-02-28T04:52:31.638Z,102691.94
2023-02-28T04:57:33.480Z,102689.72
2023-02-28T05:02:35.801Z,102698.69
2023-02-28T05:07:38.943Z,102694.50
2023-02-28T05:12:41.018Z,102691.56
2023-02-28T05:17:43.299Z,102692.13
2023-02-28T05:22:46.413Z,102703.06
2023-02-28T05:27:48.530Z,102695.75
2023-02-28T05:32:52.594Z,102698.25
2023-02-28T05:37:55.996Z,102707.59
2023-02-28T05:42:58.046Z,102710.81
2023-02-28T05:48:00.201Z,102714.34
2023-02-28T05:53:03.722Z,102710.78
2023-02-28T05:58:05.944Z,102708.59
2023-02-28T06:03:08.278Z,102709.34
2023-02-28T06:08:11.805Z,102718.19
2023-02-28T06:13:13.695Z,102732.22
2023-02-28T06:18:18.335Z,102725.59
2023-02-28T06:23:21.429Z,102724.84
2023-02-28T06:28:27.745Z,102740.59
2023-02-28T06:33:29.721Z,102742.66
2023-02-28T06:38:37.388Z,102747.97
2023-02-28T06:43:42.114Z,102752.72
2023-02-28T06:48:44.716Z,102751.44
2023-02-28T06:53:47.815Z,102753.19
2023-02-28T06:58:51.277Z,102763.91
2023-02-28T07:03:53.457Z,102759.53
2023-02-28T07:08:57.361Z,102758.66
2023-02-28T07:13:59.141Z,102770.47
2023-02-28T07:19:01.038Z,102769.66
2023-02-28T07:24:05.134Z,102774.38
2023-02-28T07:29:06.885Z,102771.13
2023-02-28T07:34:08.580Z,102771.25
2023-02-28T07:39:12.981Z,102767.50
2023-02-28T07:44:15.668Z,102770.34
2023-02-28T07:49:17.567Z,102763.06
2023-02-28T07:54:20.654Z,102772.22
2023-02-28T07:59:22.394Z,102770.97
2023-02-28T08:04:24.039Z,102768.75
2023-02-28T08:09:28.272Z,102772.47
2023-02-28T08:14:30.463Z,102777.59
2023-02-28T08:19:33.162Z,102772.41
2023-02-28T08:24:39.609Z,102776.44
2023-02-28T08:29:41.455Z,102775.25
2023-02-28T08:34:43.583Z,102773.72
2023-02-28T08:39:47.767Z,102776.97
2023-02-28T08:44:49.831Z,102777.56
2023-02-28T08:49:51.850Z,102786.00
2023-02-28T08:54:55.452Z,102781.94
2023-02-28T08:59:57.195Z,102776.88
2023-02-28T09:04:59.473Z,102777.88
2023-02-28T09:10:03.018Z,102767.19
2023-02-28T09:15:06.802Z,102777.72
2023-02-28T09:20:10.321Z,102781.06
2023-02-28T09:25:13.768Z,102779.22
2023-02-28T09:30:16.382Z,102786.78
2023-02-28T09:35:18.833Z,102785.50
2023-02-28T09:40:24.306Z,102778.41
2023-02-28T09:45:31.167Z,102771.19
2023-02-28T09:50:39.938Z,102775.06
2023-02-28T09:55:47.214Z,102777.16
2023-02-28T10:00:57.679Z,102789.94
2023-02-28T10:06:09.095Z,102786.03
2023-02-28T10:11:17.769Z,102779.59
2023-02-28T10:16:27.249Z,102773.59
2023-02-28T10:21:35.103Z,102770.88
2023-02-28T10:26:38.418Z,102771.91
2023-02-28T10:31:41.027Z,102775.63
2023-02-28T10:36:44.353Z,102779.81
2023-02-28T10:41:50.793Z,102782.41
2023-02-28T10:46:54.237Z,102772.94
2023-02-28T10:51:58.004Z,102772.03
2023-02-28T10:57:24.868Z,102770.69
2023-02-28T11:02:36.157Z,102767.28
2023-02-28T11:07:50.477Z,102760.44
2023-02-28T11:13:00.972Z,102762.09
2023-02-28T11:18:20.382Z,102753.50
2023-02-28T11:23:26.226Z,102747.06
2023-02-28T11:28:32.287Z,102739.50
2023-02-28T11:33:42.941Z,102730.88
2023-02-28T11:38:45.398Z,102724.13
2023-02-28T11:44:01.814Z,102715.72
2023-02-28T11:49:19.319Z,102719.25
2023-02-28T11:54:44.400Z,102719.72
2023-02-28T12:00:00.798Z,102715.06
2023-02-28T12:05:14.993Z,102715.16
2023-02-28T12:10:23.176Z,102716.13
2023-02-28T12:15:50.804Z,102707.19
2023-02-28T12:21:01.107Z,102708.28
2023-02-28T12:26:15.831Z,102700.59
2023-02-28T12:31:22.858Z,102700.97
2023-02-28T12:36:25.577Z,102705.66
2023-02-28T12:41:37.981Z,102690.88
2023-02-28T12:46:46.211Z,102674.63
2023-02-28T12:51:48.700Z,102675.47
2023-02-28T12:56:57.585Z,102666.91
2023-02-28T13:02:40.121Z,102661.34
2023-02-28T13:08:18.346Z,102649.25
2023-02-28T13:13:22.794Z,102632.28
2023-02-28T13:18:32.828Z,102639.00
2023-02-28T13:23:41.815Z,102637.75
2023-02-28T13:29:28.877Z,102625.97
2023-02-28T13:34:32.101Z,102616.81
2023-02-28T13:39:50.730Z,102615.66
2023-02-28T13:45:23.647Z,102626.88
2023-02-28T13:50:32.984Z,102621.59
2023-02-28T13:55:44.717Z,102617.91
2023-02-28T14:01:12.600Z,102606.97
2023-02-28T14:06:27.508Z,102608.56
2023-02-28T14:11:34.978Z,102597.38
2023-02-28T14:16:40.906Z,102595.50
2023-02-28T14:21:59.828Z,102598.41
2023-02-28T14:27:15.392Z,102601.53
2023-02-28T14:32:27.065Z,102590.81
2023-02-28T14:37:34.401Z,102596.25
2023-02-28T14:42:37.887Z,102589.38
2023-02-28T14:47:40.521Z,102586.16
2023-02-28T14:52:44.869Z,102586.50
2023-02-28T14:57:53.114Z,102581.75
2023-02-28T15:02:56.580Z,102581.84
2023-02-28T15:08:06.995Z,102581.84
2023-02-28T15:13:13.073Z,102578.69
2023-02-28T15:18:28.991Z,102580.53
2023-02-28T15:23:35.384Z,102579.34
2023-02-28T15:28:37.296Z,102577.41
2023-02-28T15:33:53.984Z,102572.34
2023-02-28T15:38:59.587Z,102568.19
2023-02-28T15:44:26.967Z,102563.59
2023-02-28T15:49:31.972Z,102569.09
2023-02-28T15:54:37.085Z,102569.97
2023-02-28T15:59:39.338Z,102568.91
2023-02-28T16:04:57.227Z,102569.63
2023-02-28T16:10:01.362Z,102570.28
2023-02-28T16:15:08.989Z,102585.22
2023-02-28T16:20:15.674Z,102587.47
2023-02-28T16:25:20.602Z,102586.88
2023-02-28T16:30:25.834Z,102584.63
2023-02-28T16:35:30.139Z,102582.81
2023-02-28T16:40:35.252Z,102578.47
2023-02-28T16:45:37.436Z,102594.22
2023-02-28T16:50:39.093Z,102590.88
2023-02-28T16:55:42.446Z,102591.00
2023-02-28T17:00:45.033Z,102583.25
2023-02-28T17:05:47.143Z,102584.00
2023-02-28T17:10:51.066Z,102590.84
2023-02-28T17:15:53.420Z,102606.28
2023-02-28T17:20:55.367Z,102600.78
2023-02-28T17:25:58.855Z,102608.56
2023-02-28T17:31:01.052Z,102609.56
2023-02-28T17:36:03.256Z,102616.22
2023-02-28T17:41:06.625Z,102609.25
2023-02-28T17:46:17.465Z,102606.56
2023-02-28T17:51:24.408Z,102617.47
2023-02-28T17:56:28.646Z,102613.97
2023-02-28T18:01:30.880Z,102620.41
2023-02-28T18:06:36.776Z,102631.28
2023-02-28T18:11:40.427Z,102612.47
2023-02-28T18:16:43.169Z,102627.28
2023-02-28T18:21:47.828Z,102620.47
2023-02-28T18:26:51.507Z,102624.16
2023-02-28T18:31:55.353Z,102626.38
2023-02-28T18:36:57.675Z,102621.53
2023-02-28T18:42:00.904Z,102624.19
2023-02-28T18:47:05.199Z,102632.69
2023-02-28T18:52:07.428Z,102633.81
2023-02-28T18:57:18.145Z,102629.16
2023-02-28T19:02:20.222Z,102629.47
2023-02-28T19:07:22.010Z,102641.97
2023-02-28T19:12:26.760Z,102633.81
2023-02-28T19:17:28.726Z,102624.78
2023-02-28T19:22:33.807Z,102646.78
2023-02-28T19:27:37.744Z,102637.53
2023-02-28T19:32:40.105Z,102631.50
2023-02-28T19:37:42.416Z,102652.03
2023-02-28T19:42:45.689Z,102651.81
2023-02-28T19:47:47.524Z,102656.22
2023-02-28T19:52:49.701Z,102661.53
2023-02-28T19:57:52.895Z,102660.84
2023-02-28T20:02:55.994Z,102646.28
2023-02-28T20:07:58.622Z,102655.53
2023-02-28T20:13:02.059Z,102658.34
2023-02-28T20:18:04.401Z,102652.94
2023-02-28T20:23:06.524Z,102644.84
2023-02-28T20:28:10.240Z,102652.94
2023-02-28T20:33:15.527Z,102651.81
2023-02-28T20:38:17.882Z,102644.47
2023-02-28T20:43:21.620Z,102636.81
2023-02-28T20:48:24.120Z,102641.88
2023-02-28T20:53:27.918Z,102642.56
2023-02-28T20:58:33.851Z,102644.25
2023-02-28T21:03:35.579Z,102641.75
2023-02-28T21:08:38.938Z,102639.66
2023-02-28T21:13:43.646Z,102618.97
2023-02-28T21:18:45.495Z,102625.59
2023-02-28T21:23:48.069Z,102620.97
2023-02-28T21:28:52.720Z,102616.56
2023-02-28T21:33:56.065Z,102618.38
2023-02-28T21:39:01.276Z,102636.25
2023-02-28T21:44:04.723Z,102637.50
2023-02-28T21:49:06.911Z,102636.47
2023-02-28T21:54:10.477Z,102635.03
2023-02-28T21:59:14.205Z,102637.03
2023-02-28T22:04:17.881Z,102642.84
2023-02-28T22:09:20.668Z,102642.13
2023-02-28T22:14:24.563Z,102652.28
2023-02-28T22:19:28.331Z,102651.72
2023-02-28T22:24:31.428Z,102656.19
2023-02-28T22:29:34.594Z,102653.41
2023-02-28T22:34:36.752Z,102655.53
2023-02-28T22:39:38.965Z,102652.34
2023-02-28T22:44:42.494Z,102656.47
2023-02-28T22:49:44.793Z,102651.88
2023-02-28T22:54:50.058Z,102666.94
2023-02-28T22:59:53.145Z,102669.00
2023-02-28T23:04:55.759Z,102665.44
2023-02-28T23:09:57.568Z,102660.81
2023-02-28T23:15:01.627Z,102673.56
2023-02-28T23:20:04.279Z,102681.09
2023-02-28T23:25:07.187Z,102683.66
2023-02-28T23:30:14.664Z,102694.38
2023-02-28T23:35:17.097Z,102691.63
2023-02-28T23:40:19.188Z,102692.13
2023-02-28T23:45:22.751Z,102690.47
2023-02-28T23:50:24.893Z,102684.03
2023-02-28T23:55:26.698Z,102670.69
